createdAt,value
2023-04-14T00:02:18.291Z,15.25
2023-04-14T00:07:27.237Z,13.69
2023-04-14T00:12:35.929Z,11.59
2023-04-14T00:17:44.828Z,12.08
2023-04-14T00:22:53.650Z,12.54
2023-04-14T00:28:02.828Z,10.91
2023-04-14T00:33:11.145Z,11.70
2023-04-14T00:38:19.882Z,13.19
2023-04-14T00:43:28.532Z,11.60
2023-04-14T00:48:37.207Z,11.76
2023-04-14T00:53:45.838Z,11.97
2023-04-14T00:58:55.087Z,12.58
2023-04-14T01:04:04.053Z,14.07
2023-04-14T01:09:12.530Z,13.99
2023-04-14T01:14:21.043Z,12.73
2023-04-14T01:19:29.968Z,12.92
2023-04-14T01:24:38.679Z,14.28
2023-04-14T01:29:47.342Z,15.52
2023-04-14T01:34:55.935Z,15.02
2023-04-14T01:40:05.046Z,14.96
2023-04-14T01:45:13.674Z,15.42
2023-04-14T01:50:22.445Z,16.40
2023-04-14T01:55:31.152Z,16.08
2023-04-14T02:00:43.363Z,18.51
2023-04-14T02:05:41.826Z,16.39
2023-04-14T02:10:50.804Z,17.87
2023-04-14T02:15:59.508Z,17.23
2023-04-14T02:21:09.498Z,18.03
2023-04-14T02:26:18.011Z,16.94
2023-04-14T02:31:27.054Z,17.66
2023-04-14T02:36:35.673Z,19.44
2023-04-14T02:41:44.596Z,19.87
2023-04-14T02:46:53.006Z,21.07
2023-04-14T02:52:01.462Z,21.55
2023-04-14T02:57:10.025Z,21.15
2023-04-14T03:02:19.195Z,22.58
2023-04-14T03:07:27.598Z,21.53
2023-04-14T03:12:37.042Z,21.55
2023-04-14T03:17:46.053Z,22.45
2023-04-14T03:22:54.824Z,21.93
2023-04-14T03:28:03.283Z,21.80
2023-04-14T03:33:12.458Z,21.36
2023-04-14T03:38:21.158Z,19.28
2023-04-14T03:43:30.261Z,19.94
2023-04-14T03:48:39.314Z,23.04
2023-04-14T03:53:48.409Z,20.73
2023-04-14T03:58:57.344Z,22.03
2023-04-14T04:04:06.786Z,20.13
2023-04-14T04:09:15.370Z,21.02
2023-04-14T04:14:24.495Z,20.75
2023-04-14T04:19:33.653Z,21.25
2023-04-14T04:24:42.477Z,23.50
2023-04-14T04:29:51.338Z,22.62
2023-04-14T04:35:00.471Z,21.63
2023-04-14T04:40:09.066Z,21.36
2023-04-14T04:45:17.952Z,21.60
2023-04-14T04:50:26.710Z,20.09
2023-04-14T04:55:35.621Z,16.92
2023-04-14T05:00:44.320Z,15.80
2023-04-14T05:05:53.945Z,15.22
2023-04-14T05:11:02.794Z,16.94
2023-04-14T05:16:12.097Z,15.19
2023-04-14T05:21:20.925Z,17.43
2023-04-14T05:26:48.739Z,14.52
2023-04-14T05:31:38.978Z,15.14
2023-04-14T05:36:47.902Z,15.06
2023-04-14T05:41:56.883Z,14.12
2023-04-14T05:47:06.767Z,16.17
2023-04-14T05:52:15.346Z,13.56
2023-04-14T05:57:24.586Z,16.72
2023-04-14T06:02:33.011Z,14.49
2023-04-14T06:07:41.962Z,13.04
2023-04-14T06:12:50.756Z,14.58
2023-04-14T06:17:59.748Z,13.07
2023-04-14T06:23:08.810Z,14.62
2023-04-14T06:28:17.991Z,12.83
2023-04-14T06:33:26.535Z,12.47
2023-04-14T06:38:35.610Z,11.46
2023-04-14T06:43:44.232Z,11.87
2023-04-14T06:48:53.438Z,15.44
2023-04-14T06:54:02.035Z,11.35
2023-04-14T06:59:16.111Z,9.55
2023-04-14T07:04:17.211Z,11.54
2023-04-14T07:09:18.723Z,11.64
2023-04-14T07:14:18.484Z,13.66
2023-04-14T07:19:28.503Z,12.72
2023-04-14T07:24:28.484Z,11.17
2023-04-14T07:29:40.556Z,10.61
2023-04-14T07:34:40.367Z,16.47
2023-04-14T07:39:51.094Z,12.57
2023-04-14T07:44:49.977Z,10.99
2023-04-14T07:49:59.746Z,12.81
2023-04-14T07:55:10.537Z,11.31
2023-04-14T08:00:10.833Z,9.18
2023-04-14T08:05:11.202Z,12.10
2023-04-14T08:10:11.137Z,11.80
2023-04-14T08:15:20.149Z,11.37
2023-04-14T08:20:30.454Z,11.65
2023-04-14T08:25:30.313Z,17.51
2023-04-14T08:30:41.042Z,11.17
2023-04-14T08:35:42.213Z,11.14
2023-04-14T08:40:49.596Z,9.81
2023-04-14T08:45:48.708Z,10.17
2023-04-14T08:51:00.536Z,9.18
2023-04-14T08:56:00.486Z,10.83
2023-04-14T09:01:10.519Z,10.31
2023-04-14T09:06:20.501Z,11.11
2023-04-14T09:11:21.379Z,11.48
2023-04-14T09:16:20.646Z,11.97
2023-04-14T09:21:52.288Z,17.15
2023-04-14T09:26:40.102Z,15.67
2023-04-14T09:31:50.584Z,14.63
2023-04-14T09:36:51.447Z,11.92
2023-04-14T09:41:51.145Z,11.67
2023-04-14T09:46:59.792Z,12.02
2023-04-14T09:52:09.206Z,12.19
2023-04-14T09:57:18.910Z,16.09
2023-04-14T10:02:21.874Z,14.70
2023-04-14T10:07:27.160Z,10.20
2023-04-14T10:12:37.579Z,11.95
2023-04-14T10:17:38.190Z,14.00
2023-04-14T10:22:40.982Z,8.89
2023-04-14T10:27:37.225Z,11.86
2023-04-14T10:32:46.894Z,12.04
2023-04-14T10:37:56.345Z,12.18
2023-04-14T10:43:05.543Z,10.28
2023-04-14T10:48:15.531Z,9.85
2023-04-14T10:53:25.033Z,11.24
2023-04-14T10:58:35.223Z,12.17
2023-04-14T11:03:34.539Z,13.37
2023-04-14T11:08:46.016Z,14.62
2023-04-14T11:13:45.518Z,11.41
2023-04-14T11:18:57.304Z,12.32
2023-04-14T11:23:57.467Z,10.98
2023-04-14T11:28:57.599Z,10.41
2023-04-14T11:33:57.563Z,10.72
2023-04-14T11:39:07.585Z,12.18
2023-04-14T11:44:08.308Z,15.35
2023-04-14T11:49:08.114Z,10.84
2023-04-14T11:54:19.620Z,12.49
2023-04-14T11:59:19.308Z,10.33
2023-04-14T12:04:29.573Z,11.81
2023-04-14T12:09:28.223Z,18.37
2023-04-14T12:14:38.576Z,13.27
2023-04-14T12:19:37.350Z,14.36
2023-04-14T12:24:47.366Z,15.82
2023-04-14T12:29:47.085Z,12.72
2023-04-14T12:34:57.702Z,15.55
2023-04-14T12:39:56.798Z,12.07
2023-04-14T12:45:08.247Z,19.05
2023-04-14T12:50:08.066Z,12.46
2023-04-14T12:55:19.518Z,12.88
2023-04-14T13:00:18.013Z,18.27
2023-04-14T13:05:29.190Z,17.83
2023-04-14T13:10:29.280Z,17.02
2023-04-14T13:16:10.471Z,17.00
2023-04-14T13:20:38.150Z,16.63
2023-04-14T13:25:48.340Z,17.90
2023-04-14T13:30:48.339Z,20.06
2023-04-14T13:35:59.134Z,13.18
2023-04-14T13:40:58.621Z,13.93
2023-04-14T13:46:08.142Z,14.88
2023-04-14T13:51:19.747Z,12.50
2023-04-14T13:56:19.173Z,16.18
2023-04-14T14:01:28.171Z,13.67
2023-04-14T14:06:39.799Z,12.14
2023-04-14T14:11:39.204Z,17.51
2023-04-14T14:16:49.837Z,22.52
2023-04-14T14:21:50.796Z,23.47
2023-04-14T14:26:49.084Z,20.09
2023-04-14T14:31:57.966Z,24.53
2023-04-14T14:37:07.098Z,24.56
2023-04-14T14:42:15.901Z,25.04
2023-04-14T14:47:25.098Z,18.49
2023-04-14T14:52:34.139Z,19.60
2023-04-14T14:57:43.624Z,15.89
2023-04-14T15:02:52.493Z,17.26
2023-04-14T15:08:01.598Z,20.24
2023-04-14T15:13:10.303Z,16.37
2023-04-14T15:18:19.508Z,14.64
2023-04-14T15:23:29.065Z,16.18
2023-04-14T15:28:38.024Z,16.81
2023-04-14T15:33:47.102Z,17.43
2023-04-14T15:38:56.435Z,18.26
2023-04-14T15:44:05.027Z,19.20
2023-04-14T15:49:13.914Z,22.74
2023-04-14T15:54:22.541Z,22.27
2023-04-14T15:59:31.542Z,21.22
2023-04-14T16:04:40.672Z,23.14
2023-04-14T16:09:50.494Z,24.72
2023-04-14T16:14:59.368Z,22.57
2023-04-14T16:20:08.842Z,22.46
2023-04-14T16:25:17.537Z,22.98
2023-04-14T16:30:26.581Z,23.21
2023-04-14T16:35:35.846Z,22.79
2023-04-14T16:40:44.552Z,23.24
2023-04-14T16:45:53.278Z,22.44
2023-04-14T16:51:02.145Z,22.82
2023-04-14T16:56:10.648Z,22.95
2023-04-14T17:01:19.923Z,22.13
2023-04-14T17:06:28.762Z,18.02
2023-04-14T17:11:37.559Z,13.89
2023-04-14T17:16:46.361Z,15.08
2023-04-14T17:21:55.345Z,33.25
2023-04-14T17:27:04.317Z,25.07
2023-04-14T17:32:13.486Z,25.61
2023-04-14T17:37:22.060Z,29.36
2023-04-14T17:42:31.046Z,17.91
2023-04-14T17:47:39.974Z,37.84
2023-04-14T17:52:49.052Z,16.98
2023-04-14T17:57:57.646Z,23.65
2023-04-14T18:03:07.137Z,14.99
2023-04-14T18:08:15.763Z,14.59
2023-04-14T18:13:24.375Z,14.72
2023-04-14T18:18:33.870Z,15.64
2023-04-14T18:23:43.367Z,15.64
2023-04-14T18:28:52.560Z,15.30
2023-04-14T18:34:02.150Z,16.64
2023-04-14T18:39:09.599Z,16.69
2023-04-14T18:44:18.858Z,18.44
2023-04-14T18:49:27.531Z,16.70
2023-04-14T18:54:36.588Z,16.33
2023-04-14T18:59:45.158Z,15.13
2023-04-14T19:04:54.618Z,18.20
2023-04-14T19:10:04.047Z,16.34
2023-04-14T19:15:13.678Z,16.08
2023-04-14T19:20:23.085Z,17.36
2023-04-14T19:25:32.564Z,16.71
2023-04-14T19:30:41.581Z,16.48
2023-04-14T19:35:50.606Z,17.22
2023-04-14T19:40:59.607Z,20.96
2023-04-14T19:46:08.985Z,16.77
2023-04-14T19:51:17.536Z,18.44
2023-04-14T19:56:27.345Z,19.32
2023-04-14T20:01:36.224Z,19.36
2023-04-14T20:06:44.914Z,18.05
2023-04-14T20:11:53.856Z,18.43
2023-04-14T20:17:03.111Z,18.75
2023-04-14T20:22:11.569Z,20.39
2023-04-14T20:27:20.125Z,19.26
2023-04-14T20:32:28.508Z,19.69
2023-04-14T20:37:37.778Z,18.73
2023-04-14T20:42:46.222Z,18.26
2023-04-14T20:47:54.944Z,18.06
2023-04-14T20:53:03.662Z,21.34
2023-04-14T20:58:12.904Z,19.77
2023-04-14T21:03:21.990Z,18.40
2023-04-14T21:08:30.289Z,18.60
2023-04-14T21:15:28.861Z,19.66
2023-04-14T21:18:47.795Z,20.46
2023-04-14T21:23:56.373Z,21.78
2023-04-14T21:29:05.273Z,17.90
2023-04-14T21:34:14.120Z,18.17
2023-04-14T21:39:23.323Z,16.88
2023-04-14T21:44:31.812Z,18.45
2023-04-14T21:49:40.521Z,17.62
2023-04-14T21:54:49.107Z,15.88
2023-04-14T21:59:58.236Z,19.72
2023-04-14T22:05:06.633Z,16.39
2023-04-14T22:10:15.664Z,16.86
2023-04-14T22:15:24.339Z,17.62
2023-04-14T22:20:33.456Z,17.28
2023-04-14T22:25:42.121Z,17.17
2023-04-14T22:30:51.277Z,16.40
2023-04-14T22:36:00.189Z,16.52
2023-04-14T22:41:09.041Z,17.31
2023-04-14T22:46:17.706Z,15.07
2023-04-14T22:51:26.937Z,17.47
2023-04-14T22:56:35.262Z,16.21
2023-04-14T23:01:43.991Z,17.79
2023-04-14T23:06:52.680Z,15.77
2023-04-14T23:12:01.825Z,15.25
2023-04-14T23:17:10.186Z,15.39
2023-04-14T23:22:19.329Z,15.61
2023-04-14T23:27:28.444Z,15.07
2023-04-14T23:32:37.710Z,15.19
2023-04-14T23:37:46.099Z,15.22
2023-04-14T23:42:54.932Z,17.96
2023-04-14T23:48:03.283Z,15.62
2023-04-14T23:53:12.392Z,16.26
2023-04-14T23:58:26.856Z,13.21
